ATX934 RPVE-RPLL
Flight info
| Callsign | ATX934 |
|---|---|
| Flight time | 0h 46m |
| Altitude | 22000 |
| Route | MINOR8A MINOR B473 LAIYA LAIYA3R |
| Aircraft | A321/M-SDE3FGHIRWY/LB1 |
Departure
| Time | 2026-05-09 14:27 |
|---|---|
| Airport | Godofredo P. Ramos Airport (RPVE) |
Arrival
| Time | 2026-05-09 15:14 |
|---|---|
| Airport | Ninoy Aquino International Airport (RPLL) |
| Time | Latitude | Longitude | Altitude | Speed | Heading |
|---|---|---|---|---|---|
| 2026-05-09 13:43 | 11.92668 | 121.96398 | 31 ft | 0 kts | 153° |
| 2026-05-09 14:14 | 11.92685 | 121.96389 | 31 ft | 2 kts | 155° |
| 2026-05-09 14:15 | 11.92700 | 121.96386 | 31 ft | 2 kts | 183° |
| 2026-05-09 14:15 | 11.92715 | 121.96389 | 31 ft | 2 kts | 204° |
| 2026-05-09 14:15 | 11.92727 | 121.96397 | 31 ft | 2 kts | 225° |
| 2026-05-09 14:15 | 11.92734 | 121.96406 | 31 ft | 0 kts | 240° |
| 2026-05-09 14:16 | 11.92732 | 121.96403 | 31 ft | 3 kts | 236° |
| 2026-05-09 14:16 | 11.92716 | 121.96377 | 31 ft | 2 kts | 239° |
| 2026-05-09 14:16 | 11.92712 | 121.96369 | 31 ft | 1 kts | 242° |
| 2026-05-09 14:16 | 11.92712 | 121.96368 | 31 ft | 0 kts | 242° |
| 2026-05-09 14:19 | 11.92711 | 121.96368 | 31 ft | 0 kts | 242° |
| 2026-05-09 14:20 | 11.92707 | 121.96359 | 31 ft | 1 kts | 243° |
| 2026-05-09 14:20 | 11.92698 | 121.96342 | 31 ft | 3 kts | 242° |
| 2026-05-09 14:20 | 11.92685 | 121.96314 | 31 ft | 5 kts | 243° |
| 2026-05-09 14:21 | 11.92645 | 121.96231 | 31 ft | 8 kts | 251° |
| 2026-05-09 14:21 | 11.92667 | 121.96183 | 31 ft | 9 kts | 331° |
| 2026-05-09 14:21 | 11.92713 | 121.96159 | 31 ft | 0 kts | 333° |
| 2026-05-09 14:21 | 11.92715 | 121.96158 | 31 ft | 0 kts | 332° |
| 2026-05-09 14:22 | 11.92730 | 121.96149 | 31 ft | 2 kts | 332° |
| 2026-05-09 14:22 | 11.92757 | 121.96135 | 31 ft | 5 kts | 332° |
| 2026-05-09 14:22 | 11.92790 | 121.96109 | 31 ft | 6 kts | 301° |
| 2026-05-09 14:22 | 11.92788 | 121.96059 | 31 ft | 8 kts | 241° |
| 2026-05-09 14:23 | 11.92759 | 121.96001 | 31 ft | 11 kts | 242° |
| 2026-05-09 14:23 | 11.92717 | 121.95917 | 31 ft | 14 kts | 241° |
| 2026-05-09 14:23 | 11.92665 | 121.95814 | 31 ft | 17 kts | 242° |
| 2026-05-09 14:23 | 11.92605 | 121.95695 | 31 ft | 19 kts | 242° |
| 2026-05-09 14:24 | 11.92539 | 121.95562 | 31 ft | 21 kts | 243° |
| 2026-05-09 14:24 | 11.92466 | 121.95417 | 31 ft | 23 kts | 243° |
| 2026-05-09 14:24 | 11.92418 | 121.95321 | 31 ft | 23 kts | 241° |
| 2026-05-09 14:24 | 11.92344 | 121.95177 | 31 ft | 20 kts | 244° |
| 2026-05-09 14:25 | 11.92316 | 121.95124 | 31 ft | 2 kts | 234° |
| 2026-05-09 14:25 | 11.92302 | 121.95102 | 31 ft | 4 kts | 234° |
| 2026-05-09 14:25 | 11.92269 | 121.95063 | 31 ft | 6 kts | 220° |
| 2026-05-09 14:25 | 11.92244 | 121.95023 | 31 ft | 6 kts | 271° |
| 2026-05-09 14:26 | 11.92254 | 121.95013 | 31 ft | 2 kts | 18° |
| 2026-05-09 14:26 | 11.92272 | 121.95029 | 31 ft | 4 kts | 59° |
| 2026-05-09 14:26 | 11.92277 | 121.95042 | 31 ft | 3 kts | 64° |
| 2026-05-09 14:26 | 11.92408 | 121.95303 | 31 ft | 87 kts | 62° |
| 2026-05-09 14:27 | 11.92822 | 121.96127 | 58 ft | 165 kts | 63° |
| 2026-05-09 14:27 | 11.93373 | 121.97210 | 861 ft | 177 kts | 62° |
| 2026-05-09 14:27 | 11.93909 | 121.98274 | 1817 ft | 168 kts | 62° |
| 2026-05-09 14:27 | 11.94444 | 121.99345 | 2323 ft | 179 kts | 62° |
| 2026-05-09 14:28 | 11.95034 | 122.00539 | 2751 ft | 196 kts | 61° |
| 2026-05-09 14:28 | 11.95676 | 122.01816 | 3186 ft | 213 kts | 59° |
| 2026-05-09 14:28 | 11.96656 | 122.03017 | 3608 ft | 230 kts | 37° |
| 2026-05-09 14:28 | 11.98071 | 122.03881 | 4116 ft | 248 kts | 26° |
| 2026-05-09 14:29 | 11.99684 | 122.04681 | 4662 ft | 265 kts | 24° |
| 2026-05-09 14:29 | 12.01361 | 122.05499 | 5418 ft | 273 kts | 24° |
| 2026-05-09 14:29 | 12.03056 | 122.06335 | 6271 ft | 276 kts | 24° |
| 2026-05-09 14:29 | 12.04775 | 122.07195 | 7092 ft | 281 kts | 24° |
| 2026-05-09 14:30 | 12.06527 | 122.08076 | 7897 ft | 285 kts | 24° |
| 2026-05-09 14:30 | 12.08315 | 122.08981 | 8700 ft | 289 kts | 24° |
| 2026-05-09 14:30 | 12.10130 | 122.09900 | 9461 ft | 294 kts | 24° |
| 2026-05-09 14:30 | 12.11970 | 122.10827 | 10199 ft | 299 kts | 24° |
| 2026-05-09 14:31 | 12.13873 | 122.11784 | 10722 ft | 312 kts | 24° |
| 2026-05-09 14:31 | 12.15883 | 122.12796 | 11073 ft | 330 kts | 24° |
| 2026-05-09 14:31 | 12.17980 | 122.13854 | 11404 ft | 348 kts | 25° |
| 2026-05-09 14:31 | 12.20210 | 122.14982 | 11768 ft | 364 kts | 25° |
| 2026-05-09 14:32 | 12.22494 | 122.16140 | 12445 ft | 370 kts | 25° |
| 2026-05-09 14:32 | 12.24778 | 122.17297 | 13242 ft | 371 kts | 25° |
| 2026-05-09 14:32 | 12.27078 | 122.18465 | 13972 ft | 374 kts | 26° |
| 2026-05-09 14:32 | 12.29427 | 122.19657 | 14654 ft | 378 kts | 26° |
| 2026-05-09 14:33 | 12.31769 | 122.20847 | 15295 ft | 382 kts | 26° |
| 2026-05-09 14:33 | 12.34214 | 122.21927 | 15895 ft | 387 kts | 15° |
| 2026-05-09 14:33 | 12.36893 | 122.22207 | 16490 ft | 391 kts | 355° |
| 2026-05-09 14:33 | 12.39509 | 122.21523 | 17115 ft | 393 kts | 335° |
| 2026-05-09 14:34 | 12.41829 | 122.20096 | 17748 ft | 395 kts | 326° |
| 2026-05-09 14:34 | 12.44108 | 122.18492 | 18330 ft | 399 kts | 325° |
| 2026-05-09 14:34 | 12.46375 | 122.16880 | 18880 ft | 403 kts | 325° |
| 2026-05-09 14:34 | 12.48710 | 122.15228 | 19444 ft | 406 kts | 325° |
| 2026-05-09 14:35 | 12.51026 | 122.13599 | 19986 ft | 409 kts | 325° |
| 2026-05-09 14:35 | 12.53354 | 122.11971 | 20510 ft | 412 kts | 326° |
| 2026-05-09 14:35 | 12.55741 | 122.10304 | 21031 ft | 415 kts | 326° |
| 2026-05-09 14:35 | 12.58119 | 122.08648 | 21534 ft | 418 kts | 326° |
| 2026-05-09 14:36 | 12.60550 | 122.06955 | 21855 ft | 421 kts | 326° |
| 2026-05-09 14:36 | 12.62984 | 122.05261 | 21907 ft | 421 kts | 326° |
| 2026-05-09 14:36 | 12.65375 | 122.03597 | 21916 ft | 420 kts | 326° |
| 2026-05-09 14:36 | 12.67802 | 122.01908 | 21918 ft | 420 kts | 326° |
| 2026-05-09 14:37 | 12.70216 | 122.00229 | 21919 ft | 420 kts | 326° |
| 2026-05-09 14:37 | 12.72612 | 121.98560 | 21919 ft | 420 kts | 326° |
| 2026-05-09 14:37 | 12.75032 | 121.96876 | 21919 ft | 420 kts | 326° |
| 2026-05-09 14:37 | 12.77456 | 121.95187 | 21919 ft | 420 kts | 326° |
| 2026-05-09 14:38 | 12.79867 | 121.93508 | 21919 ft | 420 kts | 326° |
| 2026-05-09 14:38 | 12.82261 | 121.91840 | 21919 ft | 420 kts | 326° |
| 2026-05-09 14:38 | 12.84683 | 121.90152 | 21919 ft | 420 kts | 326° |
| 2026-05-09 14:38 | 12.87078 | 121.88483 | 21919 ft | 420 kts | 326° |
| 2026-05-09 14:39 | 12.89508 | 121.86789 | 21919 ft | 420 kts | 326° |
| 2026-05-09 14:39 | 12.91931 | 121.85099 | 21919 ft | 420 kts | 326° |
| 2026-05-09 14:39 | 12.94326 | 121.83428 | 21919 ft | 420 kts | 326° |
| 2026-05-09 14:39 | 12.96723 | 121.81756 | 21919 ft | 420 kts | 326° |
| 2026-05-09 14:40 | 12.99159 | 121.80056 | 21919 ft | 420 kts | 326° |
| 2026-05-09 14:40 | 13.01552 | 121.78385 | 21919 ft | 420 kts | 326° |
| 2026-05-09 14:40 | 13.03965 | 121.76701 | 21919 ft | 420 kts | 326° |
| 2026-05-09 14:40 | 13.06382 | 121.75012 | 21919 ft | 420 kts | 326° |
| 2026-05-09 14:41 | 13.08806 | 121.73319 | 21919 ft | 420 kts | 326° |
| 2026-05-09 14:41 | 13.11177 | 121.71666 | 21919 ft | 420 kts | 326° |
| 2026-05-09 14:41 | 13.13416 | 121.70123 | 21919 ft | 420 kts | 326° |
| 2026-05-09 14:41 | 13.15852 | 121.68452 | 21919 ft | 420 kts | 326° |
| 2026-05-09 14:42 | 13.18262 | 121.66800 | 21919 ft | 420 kts | 326° |
| 2026-05-09 14:42 | 13.20699 | 121.65128 | 21919 ft | 420 kts | 326° |
| 2026-05-09 14:42 | 13.23137 | 121.63456 | 21919 ft | 420 kts | 326° |
| 2026-05-09 14:42 | 13.25546 | 121.61803 | 21919 ft | 420 kts | 326° |
| 2026-05-09 14:43 | 13.27151 | 121.60702 | 21919 ft | 420 kts | 326° |
| 2026-05-09 14:43 | 13.28786 | 121.59579 | 21919 ft | 420 kts | 326° |
| 2026-05-09 14:43 | 13.35212 | 121.55112 | 21919 ft | 420 kts | 325° |
| 2026-05-09 14:44 | 13.37623 | 121.53392 | 21919 ft | 420 kts | 325° |
| 2026-05-09 14:44 | 13.39996 | 121.51698 | 21919 ft | 420 kts | 325° |
| 2026-05-09 14:44 | 13.42409 | 121.49979 | 21919 ft | 420 kts | 325° |
| 2026-05-09 14:44 | 13.44792 | 121.48283 | 21919 ft | 420 kts | 325° |
| 2026-05-09 14:45 | 13.47204 | 121.46568 | 21716 ft | 420 kts | 325° |
| 2026-05-09 14:45 | 13.49574 | 121.44881 | 21468 ft | 417 kts | 325° |
| 2026-05-09 14:45 | 13.51963 | 121.43182 | 21217 ft | 416 kts | 325° |
| 2026-05-09 14:45 | 13.54347 | 121.41486 | 20963 ft | 411 kts | 325° |
| 2026-05-09 14:46 | 13.56643 | 121.39853 | 20587 ft | 402 kts | 325° |
| 2026-05-09 14:46 | 13.58893 | 121.38227 | 20235 ft | 393 kts | 324° |
| 2026-05-09 14:46 | 13.61100 | 121.36591 | 19876 ft | 385 kts | 324° |
| 2026-05-09 14:46 | 13.63232 | 121.35001 | 19531 ft | 377 kts | 324° |
| 2026-05-09 14:47 | 13.65320 | 121.33433 | 19189 ft | 370 kts | 323° |
| 2026-05-09 14:47 | 13.67384 | 121.31880 | 18849 ft | 362 kts | 323° |
| 2026-05-09 14:47 | 13.69378 | 121.30382 | 18519 ft | 355 kts | 324° |
| 2026-05-09 14:47 | 13.71373 | 121.28887 | 18186 ft | 349 kts | 324° |
| 2026-05-09 14:48 | 13.73311 | 121.27438 | 17861 ft | 342 kts | 324° |
| 2026-05-09 14:48 | 13.75207 | 121.26022 | 17550 ft | 336 kts | 324° |
| 2026-05-09 14:48 | 13.77066 | 121.24632 | 17300 ft | 329 kts | 324° |
| 2026-05-09 14:48 | 13.78910 | 121.23256 | 17051 ft | 328 kts | 324° |
| 2026-05-09 14:49 | 13.80753 | 121.21880 | 16801 ft | 327 kts | 324° |
| 2026-05-09 14:49 | 13.82576 | 121.20519 | 16552 ft | 326 kts | 324° |
| 2026-05-09 14:49 | 13.84405 | 121.19153 | 16302 ft | 324 kts | 324° |
| 2026-05-09 14:49 | 13.86221 | 121.17797 | 16053 ft | 323 kts | 324° |
| 2026-05-09 14:50 | 13.88041 | 121.16438 | 15802 ft | 322 kts | 324° |
| 2026-05-09 14:50 | 13.89857 | 121.15081 | 15551 ft | 321 kts | 324° |
| 2026-05-09 14:50 | 13.91647 | 121.13744 | 15302 ft | 320 kts | 324° |
| 2026-05-09 14:50 | 13.93445 | 121.12399 | 15052 ft | 319 kts | 324° |
| 2026-05-09 14:51 | 13.95229 | 121.11066 | 14802 ft | 317 kts | 324° |
| 2026-05-09 14:51 | 13.97008 | 121.09732 | 14552 ft | 316 kts | 324° |
| 2026-05-09 14:51 | 13.98776 | 121.08406 | 14303 ft | 315 kts | 324° |
| 2026-05-09 14:51 | 14.00566 | 121.07070 | 14050 ft | 314 kts | 324° |
| 2026-05-09 14:52 | 14.02312 | 121.05767 | 13802 ft | 313 kts | 324° |
| 2026-05-09 14:52 | 14.04068 | 121.04455 | 13552 ft | 312 kts | 324° |
| 2026-05-09 14:52 | 14.05814 | 121.03149 | 13302 ft | 311 kts | 324° |
| 2026-05-09 14:52 | 14.07564 | 121.01841 | 13051 ft | 309 kts | 324° |
| 2026-05-09 14:53 | 14.09294 | 121.00546 | 12801 ft | 308 kts | 324° |
| 2026-05-09 14:53 | 14.11024 | 120.99253 | 12552 ft | 308 kts | 324° |
| 2026-05-09 14:53 | 14.12440 | 120.98200 | 12346 ft | 306 kts | 324° |
| 2026-05-09 14:53 | 14.14156 | 120.96924 | 12097 ft | 305 kts | 324° |
| 2026-05-09 14:54 | 14.15859 | 120.95652 | 11849 ft | 304 kts | 324° |
| 2026-05-09 14:54 | 14.17603 | 120.94426 | 11580 ft | 299 kts | 328° |
| 2026-05-09 14:54 | 14.19369 | 120.93348 | 11281 ft | 294 kts | 330° |
| 2026-05-09 14:54 | 14.21127 | 120.92310 | 10990 ft | 289 kts | 330° |
| 2026-05-09 14:55 | 14.22866 | 120.91287 | 10711 ft | 283 kts | 330° |
| 2026-05-09 14:55 | 14.24537 | 120.90280 | 10444 ft | 278 kts | 325° |
| 2026-05-09 14:55 | 14.25829 | 120.88837 | 10143 ft | 273 kts | 296° |
| 2026-05-09 14:55 | 14.26255 | 120.86968 | 9888 ft | 267 kts | 267° |
| 2026-05-09 14:56 | 14.25813 | 120.85184 | 9760 ft | 256 kts | 243° |
| 2026-05-09 14:56 | 14.24955 | 120.83610 | 9640 ft | 250 kts | 239° |
| 2026-05-09 14:56 | 14.24054 | 120.82076 | 9516 ft | 251 kts | 239° |
| 2026-05-09 14:56 | 14.23157 | 120.80530 | 9390 ft | 250 kts | 239° |
| 2026-05-09 14:57 | 14.22573 | 120.79505 | 9307 ft | 250 kts | 240° |
| 2026-05-09 14:57 | 14.21696 | 120.77947 | 9181 ft | 249 kts | 240° |
| 2026-05-09 14:57 | 14.20837 | 120.76410 | 9057 ft | 249 kts | 240° |
| 2026-05-09 14:57 | 14.19677 | 120.74347 | 8890 ft | 248 kts | 240° |
| 2026-05-09 14:58 | 14.18802 | 120.72804 | 8765 ft | 248 kts | 240° |
| 2026-05-09 14:58 | 14.17938 | 120.71278 | 8640 ft | 248 kts | 240° |
| 2026-05-09 14:58 | 14.17077 | 120.69759 | 8516 ft | 247 kts | 240° |
| 2026-05-09 14:58 | 14.16208 | 120.68224 | 8391 ft | 247 kts | 240° |
| 2026-05-09 14:59 | 14.15363 | 120.66695 | 8268 ft | 250 kts | 243° |
| 2026-05-09 14:59 | 14.14702 | 120.64949 | 8099 ft | 268 kts | 263° |
| 2026-05-09 14:59 | 14.14963 | 120.63068 | 7841 ft | 267 kts | 298° |
| 2026-05-09 14:59 | 14.16185 | 120.61710 | 7542 ft | 265 kts | 331° |
| 2026-05-09 15:00 | 14.17930 | 120.61185 | 7218 ft | 263 kts | 0° |
| 2026-05-09 15:00 | 14.19696 | 120.61597 | 6895 ft | 262 kts | 27° |
| 2026-05-09 15:00 | 14.21259 | 120.62517 | 6600 ft | 262 kts | 31° |
| 2026-05-09 15:00 | 14.22833 | 120.63489 | 6229 ft | 264 kts | 31° |
| 2026-05-09 15:01 | 14.26043 | 120.65400 | 5480 ft | 266 kts | 30° |
| 2026-05-09 15:01 | 14.27636 | 120.66325 | 5170 ft | 263 kts | 30° |
| 2026-05-09 15:01 | 14.29213 | 120.67236 | 5014 ft | 253 kts | 30° |
| 2026-05-09 15:02 | 14.30690 | 120.68086 | 5002 ft | 238 kts | 30° |
| 2026-05-09 15:02 | 14.32104 | 120.68902 | 4994 ft | 223 kts | 30° |
| 2026-05-09 15:02 | 14.33478 | 120.69540 | 4981 ft | 215 kts | 12° |
| 2026-05-09 15:02 | 14.34968 | 120.69481 | 5000 ft | 219 kts | 341° |
| 2026-05-09 15:03 | 14.36223 | 120.68650 | 5005 ft | 219 kts | 311° |
| 2026-05-09 15:03 | 14.36935 | 120.67259 | 5017 ft | 221 kts | 288° |
| 2026-05-09 15:03 | 14.37121 | 120.65707 | 4994 ft | 221 kts | 261° |
| 2026-05-09 15:03 | 14.36556 | 120.64239 | 5006 ft | 222 kts | 232° |
| 2026-05-09 15:04 | 14.35330 | 120.63327 | 4986 ft | 220 kts | 191° |
| 2026-05-09 15:04 | 14.33866 | 120.63488 | 5001 ft | 218 kts | 151° |
| 2026-05-09 15:06 | 14.34808 | 120.72452 | 4029 ft | 183 kts | 72° |
| 2026-05-09 15:06 | 14.35243 | 120.73635 | 3921 ft | 168 kts | 67° |
| 2026-05-09 15:06 | 14.35723 | 120.74654 | 3863 ft | 153 kts | 63° |
| 2026-05-09 15:06 | 14.36245 | 120.75628 | 3862 ft | 154 kts | 61° |
| 2026-05-09 15:07 | 14.36769 | 120.76578 | 3743 ft | 153 kts | 62° |
| 2026-05-09 15:07 | 14.37303 | 120.77539 | 3650 ft | 154 kts | 61° |
| 2026-05-09 15:07 | 14.37837 | 120.78500 | 3548 ft | 153 kts | 61° |
| 2026-05-09 15:07 | 14.38360 | 120.79443 | 3443 ft | 152 kts | 61° |
| 2026-05-09 15:08 | 14.38538 | 120.79763 | 3402 ft | 152 kts | 61° |
| 2026-05-09 15:08 | 14.39769 | 120.81978 | 2919 ft | 153 kts | 62° |
| 2026-05-09 15:08 | 14.40467 | 120.83236 | 2850 ft | 151 kts | 61° |
| 2026-05-09 15:09 | 14.40987 | 120.84175 | 2843 ft | 151 kts | 62° |
| 2026-05-09 15:10 | 14.44631 | 120.90739 | 2131 ft | 146 kts | 62° |
| 2026-05-09 15:11 | 14.45142 | 120.91660 | 1935 ft | 146 kts | 62° |
| 2026-05-09 15:11 | 14.45641 | 120.92557 | 1742 ft | 146 kts | 62° |
| 2026-05-09 15:11 | 14.46148 | 120.93471 | 1545 ft | 145 kts | 62° |
| 2026-05-09 15:11 | 14.46648 | 120.94370 | 1357 ft | 145 kts | 62° |
| 2026-05-09 15:12 | 14.47152 | 120.95276 | 1157 ft | 146 kts | 62° |
| 2026-05-09 15:12 | 14.47654 | 120.96181 | 969 ft | 146 kts | 62° |
| 2026-05-09 15:12 | 14.48154 | 120.97080 | 776 ft | 144 kts | 62° |
| 2026-05-09 15:12 | 14.48654 | 120.97981 | 555 ft | 142 kts | 62° |
| 2026-05-09 15:13 | 14.49147 | 120.98862 | 381 ft | 143 kts | 62° |
| 2026-05-09 15:13 | 14.49643 | 120.99750 | 206 ft | 143 kts | 63° |
| 2026-05-09 15:13 | 14.50128 | 121.00624 | 88 ft | 135 kts | 63° |
| 2026-05-09 15:13 | 14.50527 | 121.01351 | 84 ft | 91 kts | 60° |
| 2026-05-09 15:14 | 14.50671 | 121.01606 | 84 ft | 30 kts | 60° |
| 2026-05-09 15:14 | 14.50727 | 121.01696 | 84 ft | 10 kts | 35° |
| 2026-05-09 15:14 | 14.50800 | 121.01744 | 84 ft | 4 kts | 34° |
| 2026-05-09 15:14 | 14.50829 | 121.01766 | 84 ft | 5 kts | 37° |
| 2026-05-09 15:15 | 14.50869 | 121.01788 | 84 ft | 7 kts | 5° |
| 2026-05-09 15:15 | 14.50890 | 121.01782 | 84 ft | 4 kts | 330° |
| 2026-05-09 15:15 | 14.50906 | 121.01756 | 84 ft | 5 kts | 268° |
| 2026-05-09 15:15 | 14.50887 | 121.01706 | 84 ft | 4 kts | 244° |
| 2026-05-09 15:16 | 14.50886 | 121.01682 | 84 ft | 5 kts | 289° |
| 2026-05-09 15:16 | 14.50909 | 121.01629 | 84 ft | 3 kts | 290° |
| 2026-05-09 15:16 | 14.50905 | 121.01601 | 84 ft | 4 kts | 251° |
| 2026-05-09 15:16 | 14.50888 | 121.01564 | 84 ft | 6 kts | 242° |
| 2026-05-09 15:17 | 14.50874 | 121.01539 | 84 ft | 4 kts | 245° |
| 2026-05-09 15:17 | 14.50850 | 121.01493 | 84 ft | 6 kts | 239° |
| 2026-05-09 15:17 | 14.50839 | 121.01470 | 84 ft | 2 kts | 261° |
| 2026-05-09 15:17 | 14.50849 | 121.01453 | 84 ft | 3 kts | 326° |
| 2026-05-09 15:18 | 14.50877 | 121.01437 | 84 ft | 5 kts | 330° |
| 2026-05-09 15:18 | 14.50910 | 121.01416 | 84 ft | 3 kts | 329° |
| 2026-05-09 15:18 | 14.50921 | 121.01410 | 84 ft | 0 kts | 330° |